Yale, South Dakota
Current Conditions -  °F | °C
As of 6:55 PM on Friday 28 Nov 2014 (Local Time) from KHON Reporting Station
Clear Clear  
Wind Chill: 21°   Ceiling: Unl
Heat Index: 26°   Visibility: 9mi
Dew Point: 22°   Wind: 5mph
Humidity: 84%   Direction: 80°E
Pressure: 29.64"   Gusts: NA
Location:  44.43°N, 97.99°W
Report Text: KHON 290055Z AUTO 08004KT 9SM CLR M03/M06 A2964 RMK AO2 SLP055 T10331056
Loading
Personal Weather Stations






























Interactive Weather Map New forecast layout! Learn more

10-Day Weather Forecast

Advertisements
Track Severe Weather on mobile